createdAt,value
2023-04-08T00:02:08.982Z,7.57
2023-04-08T00:04:41.646Z,7.55
2023-04-08T00:07:13.682Z,7.49
2023-04-08T00:09:46.931Z,7.54
2023-04-08T00:12:19.717Z,7.56
2023-04-08T00:14:51.552Z,7.62
2023-04-08T00:17:24.328Z,7.67
2023-04-08T00:19:56.529Z,7.82
2023-04-08T00:22:29.223Z,7.68
2023-04-08T00:25:01.786Z,7.59
2023-04-08T00:27:37.009Z,7.74
2023-04-08T00:30:09.574Z,7.66
2023-04-08T00:32:45.766Z,7.68
2023-04-08T00:35:19.209Z,7.76
2023-04-08T00:37:52.172Z,7.69
2023-04-08T00:40:25.666Z,8.58
2023-04-08T00:42:58.956Z,8.00
2023-04-08T00:45:34.766Z,7.77
2023-04-08T00:48:06.740Z,7.68
2023-04-08T00:50:40.417Z,7.51
2023-04-08T00:53:13.584Z,7.43
2023-04-08T00:58:40.180Z,7.19
2023-04-08T01:01:27.237Z,7.09
2023-04-08T01:04:26.088Z,6.95
2023-04-08T01:10:16.483Z,6.79
2023-04-08T01:13:02.375Z,6.85
2023-04-08T01:15:39.281Z,6.80
2023-04-08T01:18:14.241Z,6.91
2023-04-08T01:20:50.430Z,6.86
2023-04-08T01:23:50.670Z,6.80
2023-04-08T01:26:26.450Z,6.74
2023-04-08T01:29:02.548Z,6.68
2023-04-08T01:31:37.096Z,6.56
2023-04-08T01:34:12.176Z,6.55
2023-04-08T01:36:47.021Z,6.46
2023-04-08T01:39:21.949Z,6.44
2023-04-08T01:41:55.179Z,6.48
2023-04-08T01:44:31.207Z,6.43
2023-04-08T01:47:03.868Z,6.49
2023-04-08T01:49:37.517Z,6.49
2023-04-08T01:52:10.639Z,6.46
2023-04-08T01:54:43.941Z,6.61
2023-04-08T01:57:24.444Z,6.62
2023-04-08T02:00:02.463Z,6.64
2023-04-08T02:02:38.481Z,6.67
2023-04-08T02:05:11.249Z,6.76
2023-04-08T02:07:43.128Z,6.81
2023-04-08T02:10:16.532Z,6.77
2023-04-08T02:12:48.521Z,6.79
2023-04-08T02:15:21.235Z,6.79
2023-04-08T02:18:07.977Z,6.85
2023-04-08T02:20:58.315Z,6.82
2023-04-08T02:23:33.722Z,6.89
2023-04-08T02:26:14.638Z,7.05
2023-04-08T02:28:49.760Z,7.14
2023-04-08T02:31:23.478Z,7.10
2023-04-08T02:33:57.796Z,7.06
2023-04-08T02:36:33.824Z,7.06
2023-04-08T02:39:08.373Z,7.21
2023-04-08T02:41:41.420Z,7.21
2023-04-08T02:44:13.758Z,7.28
2023-04-08T02:46:46.753Z,7.41
2023-04-08T02:49:18.684Z,7.32
2023-04-08T02:51:51.336Z,7.39
2023-04-08T02:54:23.381Z,7.35
2023-04-08T02:56:55.990Z,7.44
2023-04-08T02:59:28.206Z,7.37
2023-04-08T03:02:00.487Z,7.42
2023-04-08T03:04:33.555Z,7.41
2023-04-08T03:07:07.347Z,7.45
2023-04-08T03:09:41.497Z,7.40
2023-04-08T03:12:13.379Z,7.38
2023-04-08T03:14:46.123Z,7.37
2023-04-08T03:17:17.994Z,7.31
2023-04-08T03:19:50.768Z,7.23
2023-04-08T03:22:24.319Z,7.25
2023-04-08T03:24:56.883Z,7.23
2023-04-08T03:27:28.835Z,7.41
2023-04-08T03:30:01.385Z,7.37
2023-04-08T03:32:33.556Z,7.22
2023-04-08T03:35:07.104Z,7.23
2023-04-08T03:37:39.419Z,7.22
2023-04-08T03:40:13.093Z,7.21
2023-04-08T03:42:45.692Z,7.25
2023-04-08T03:45:18.345Z,7.15
2023-04-08T03:47:50.348Z,7.17
2023-04-08T03:50:23.446Z,7.19
2023-04-08T03:52:55.783Z,7.10
2023-04-08T03:55:28.383Z,7.08
2023-04-08T03:58:00.792Z,7.08
2023-04-08T04:00:33.820Z,8.61
2023-04-08T04:03:06.585Z,7.58
2023-04-08T04:05:40.224Z,7.46
2023-04-08T04:08:12.692Z,7.34
2023-04-08T04:10:45.464Z,7.30
2023-04-08T04:13:17.643Z,7.25
2023-04-08T04:15:50.977Z,7.29
2023-04-08T04:18:23.050Z,7.27
2023-04-08T04:20:56.120Z,7.26
2023-04-08T04:23:28.421Z,7.24
2023-04-08T04:26:00.718Z,7.24
2023-04-08T04:28:33.268Z,7.23
2023-04-08T04:31:05.527Z,7.25
2023-04-08T04:33:38.131Z,7.31
2023-04-08T04:36:09.993Z,7.28
2023-04-08T04:38:43.426Z,7.30
2023-04-08T04:41:15.684Z,8.76
2023-04-08T04:43:48.262Z,8.10
2023-04-08T04:46:20.493Z,7.52
2023-04-08T04:48:53.337Z,7.35
2023-04-08T04:51:25.183Z,7.18
2023-04-08T04:53:57.750Z,7.13
2023-04-08T04:56:29.674Z,7.16
2023-04-08T04:59:02.222Z,7.09
2023-04-08T05:01:34.400Z,7.06
2023-04-08T05:04:07.954Z,7.17
2023-04-08T05:06:39.956Z,7.28
2023-04-08T05:09:12.515Z,7.17
2023-04-08T05:11:44.383Z,7.11
2023-04-08T05:14:16.661Z,7.23
2023-04-08T05:16:48.537Z,7.21
2023-04-08T05:19:21.120Z,7.24
2023-04-08T05:21:52.981Z,7.26
2023-04-08T05:24:25.197Z,7.36
2023-04-08T05:26:57.809Z,7.34
2023-04-08T05:29:30.842Z,7.33
2023-04-08T05:32:02.750Z,7.38
2023-04-08T05:34:35.014Z,7.49
2023-04-08T05:37:06.881Z,7.47
2023-04-08T05:39:39.476Z,7.64
2023-04-08T05:42:12.839Z,7.70
2023-04-08T05:44:45.548Z,7.73
2023-04-08T05:47:17.429Z,7.85
2023-04-08T05:49:51.255Z,7.91
2023-04-08T05:52:24.010Z,7.90
2023-04-08T05:54:55.864Z,7.85
2023-04-08T05:57:28.464Z,8.04
2023-04-08T06:00:00.429Z,7.99
2023-04-08T06:02:33.141Z,8.04
2023-04-08T06:05:06.105Z,8.14
2023-04-08T06:07:38.818Z,8.07
2023-04-08T06:10:11.192Z,8.22
2023-04-08T06:12:43.750Z,8.16
2023-04-08T06:15:16.627Z,8.18
2023-04-08T06:17:49.226Z,8.13
2023-04-08T06:20:21.105Z,8.17
2023-04-08T06:22:53.661Z,8.24
2023-04-08T06:25:25.950Z,8.24
2023-04-08T06:27:58.524Z,8.18
2023-04-08T06:30:30.419Z,8.20
2023-04-08T06:33:03.132Z,8.24
2023-04-08T06:35:37.288Z,8.22
2023-04-08T06:38:10.035Z,8.27
2023-04-08T06:40:42.018Z,8.45
2023-04-08T06:43:15.113Z,8.51
2023-04-08T06:45:47.403Z,8.42
2023-04-08T06:48:19.949Z,8.47
2023-04-08T06:50:51.865Z,12.32
2023-04-08T06:53:25.091Z,10.83
2023-04-08T06:55:57.031Z,9.12
2023-04-08T06:58:30.270Z,8.62
2023-04-08T07:01:03.276Z,8.32
2023-04-08T07:03:35.962Z,8.37
2023-04-08T07:06:07.939Z,8.25
2023-04-08T07:08:40.925Z,8.33
2023-04-08T07:11:12.875Z,8.35
2023-04-08T07:13:45.453Z,8.10
2023-04-08T07:16:17.434Z,8.15
2023-04-08T07:18:50.230Z,8.27
2023-04-08T07:21:22.319Z,8.45
2023-04-08T07:23:54.866Z,8.34
2023-04-08T07:26:28.739Z,8.73
2023-04-08T07:29:00.616Z,8.91
2023-04-08T07:31:32.910Z,9.24
2023-04-08T07:34:04.985Z,9.86
2023-04-08T07:36:38.704Z,9.96
2023-04-08T07:39:10.939Z,10.09
2023-04-08T07:41:43.180Z,10.22
2023-04-08T07:44:17.164Z,10.58
2023-04-08T07:46:52.002Z,10.16
2023-04-08T07:49:24.261Z,10.23
2023-04-08T07:51:57.826Z,10.39
2023-04-08T07:54:34.106Z,10.14
2023-04-08T07:57:07.090Z,10.09
2023-04-08T07:59:39.258Z,10.10
2023-04-08T08:02:11.900Z,10.65
2023-04-08T08:04:43.968Z,10.29
2023-04-08T08:07:16.897Z,10.16
2023-04-08T08:09:49.162Z,10.60
2023-04-08T08:12:21.772Z,10.35
2023-04-08T08:14:54.822Z,10.58
2023-04-08T08:17:30.482Z,10.71
2023-04-08T08:20:04.425Z,10.58
2023-04-08T08:22:47.317Z,10.65
2023-04-08T08:25:26.690Z,10.57
2023-04-08T08:27:59.622Z,10.81
2023-04-08T08:33:04.088Z,11.00
2023-04-08T08:35:36.070Z,10.86
2023-04-08T08:38:08.694Z,11.51
2023-04-08T08:40:40.738Z,11.34
2023-04-08T08:43:14.450Z,11.19
2023-04-08T08:45:47.738Z,11.19
2023-04-08T08:48:20.900Z,11.31
2023-04-08T08:50:52.865Z,11.71
2023-04-08T08:53:34.244Z,11.63
2023-04-08T08:58:45.039Z,11.75
2023-04-08T09:01:34.444Z,11.45
2023-04-08T09:04:19.876Z,11.49
2023-04-08T09:07:27.140Z,11.73
2023-04-08T09:09:59.922Z,11.64
2023-04-08T09:12:32.948Z,11.06
2023-04-08T09:15:09.801Z,11.61
2023-04-08T09:17:42.867Z,11.65
2023-04-08T09:20:15.415Z,11.69
2023-04-08T09:23:02.701Z,11.78
2023-04-08T09:25:34.649Z,11.78
2023-04-08T09:28:24.209Z,12.13
2023-04-08T09:30:56.493Z,11.98
2023-04-08T09:33:32.573Z,12.06
2023-04-08T09:36:06.226Z,12.08
2023-04-08T09:38:38.677Z,12.08
2023-04-08T09:41:16.606Z,11.86
2023-04-08T09:43:54.734Z,11.85
2023-04-08T09:46:32.222Z,11.70
2023-04-08T09:49:13.706Z,11.69
2023-04-08T09:52:09.749Z,11.57
2023-04-08T09:55:08.668Z,11.62
2023-04-08T09:58:00.109Z,11.40
2023-04-08T10:00:44.446Z,11.45
2023-04-08T10:03:40.760Z,11.50
2023-04-08T10:06:14.147Z,11.40
2023-04-08T10:08:46.728Z,11.41
2023-04-08T10:11:19.225Z,11.43
2023-04-08T10:13:52.905Z,11.46
2023-04-08T10:16:27.806Z,11.40
2023-04-08T10:19:00.266Z,11.39
2023-04-08T10:21:36.334Z,11.19
2023-04-08T10:24:12.262Z,11.08
2023-04-08T10:26:49.244Z,10.96
2023-04-08T10:29:31.165Z,10.90
2023-04-08T10:32:04.081Z,10.89
2023-04-08T10:34:54.301Z,10.99
2023-04-08T10:37:27.089Z,10.68
2023-04-08T10:39:59.435Z,12.23
2023-04-08T10:42:32.129Z,11.21
2023-04-08T10:45:05.204Z,10.78
2023-04-08T10:47:38.904Z,11.02
2023-04-08T10:50:20.810Z,11.44
2023-04-08T10:52:54.396Z,11.65
2023-04-08T10:55:27.416Z,11.82
2023-04-08T10:58:11.144Z,11.83
2023-04-08T11:00:44.431Z,11.85
2023-04-08T11:03:16.965Z,12.49
2023-04-08T11:05:52.155Z,12.70
2023-04-08T11:08:33.013Z,13.08
2023-04-08T11:11:11.315Z,13.11
2023-04-08T11:13:53.453Z,13.87
2023-04-08T11:16:28.038Z,13.93
2023-04-08T11:19:00.403Z,13.88
2023-04-08T11:21:36.041Z,13.96
2023-04-08T11:24:13.681Z,15.55
2023-04-08T11:26:46.382Z,15.15
2023-04-08T11:29:18.423Z,16.66
2023-04-08T11:31:51.437Z,15.18
2023-04-08T11:34:25.685Z,13.84
2023-04-08T11:36:59.488Z,14.72
2023-04-08T11:39:32.056Z,15.24
2023-04-08T11:42:05.832Z,15.26
2023-04-08T11:44:37.720Z,15.57
2023-04-08T11:47:11.252Z,16.07
2023-04-08T11:49:47.856Z,16.19
2023-04-08T11:52:48.035Z,16.57
2023-04-08T11:55:34.174Z,16.47
2023-04-08T11:58:07.478Z,14.65
2023-04-08T12:00:40.994Z,14.20
2023-04-08T12:03:13.725Z,13.92
2023-04-08T12:05:47.428Z,13.75
2023-04-08T12:08:19.780Z,13.51
2023-04-08T12:10:52.462Z,13.31
2023-04-08T12:13:24.378Z,13.23
2023-04-08T12:15:57.116Z,13.22
2023-04-08T12:18:29.003Z,13.17
2023-04-08T12:21:01.780Z,13.13
2023-04-08T12:23:33.748Z,13.24
2023-04-08T12:26:06.777Z,13.27
2023-04-08T12:28:38.999Z,13.10
2023-04-08T12:31:12.426Z,13.19
2023-04-08T12:33:44.834Z,13.08
2023-04-08T12:39:10.741Z,13.04
2023-04-08T12:41:43.145Z,13.00
2023-04-08T12:44:16.029Z,13.20
2023-04-08T12:46:48.616Z,13.43
2023-04-08T12:49:20.612Z,14.14
2023-04-08T12:51:54.209Z,15.03
2023-04-08T12:54:26.135Z,14.78
2023-04-08T12:56:58.945Z,15.50
2023-04-08T12:59:32.181Z,16.06
2023-04-08T13:02:06.185Z,16.10
2023-04-08T13:04:38.834Z,15.66
2023-04-08T13:07:11.578Z,15.35
2023-04-08T13:09:45.868Z,14.96
2023-04-08T13:12:18.678Z,14.44
2023-04-08T13:14:50.651Z,14.10
2023-04-08T13:17:23.439Z,13.78
2023-04-08T13:19:55.806Z,13.55
2023-04-08T13:22:28.903Z,13.75
2023-04-08T13:25:01.876Z,13.78
2023-04-08T13:27:34.671Z,13.93
2023-04-08T13:30:07.482Z,14.11
2023-04-08T13:32:39.895Z,13.95
2023-04-08T13:35:11.874Z,13.91
2023-04-08T13:37:45.333Z,14.09
2023-04-08T13:40:17.669Z,13.81
2023-04-08T13:42:51.017Z,13.88
2023-04-08T13:45:23.448Z,13.94
2023-04-08T13:47:57.126Z,13.87
2023-04-08T13:50:28.988Z,13.85
2023-04-08T13:53:01.946Z,13.83
2023-04-08T13:55:34.745Z,14.01
2023-04-08T13:58:17.281Z,13.84
2023-04-08T14:00:56.011Z,13.85
2023-04-08T14:03:28.970Z,13.69
2023-04-08T14:06:02.059Z,13.66
2023-04-08T14:08:34.020Z,13.64
2023-04-08T14:11:06.930Z,13.52
2023-04-08T14:13:39.654Z,13.36
2023-04-08T14:16:12.387Z,13.16
2023-04-08T14:18:44.294Z,13.00
2023-04-08T14:21:18.566Z,12.90
2023-04-08T14:23:51.076Z,12.88
2023-04-08T14:26:45.992Z,12.96
2023-04-08T14:29:18.269Z,13.01
2023-04-08T14:31:51.222Z,12.89
2023-04-08T14:34:23.700Z,12.84
2023-04-08T14:36:56.655Z,12.69
2023-04-08T14:39:29.432Z,12.72
2023-04-08T14:42:04.681Z,12.63
2023-04-08T14:44:36.938Z,12.61
2023-04-08T14:47:11.168Z,12.52
2023-04-08T14:49:43.915Z,12.49
2023-04-08T14:52:16.469Z,12.58
2023-04-08T14:54:48.879Z,12.53
2023-04-08T14:57:20.867Z,12.58
2023-04-08T14:59:54.359Z,12.59
2023-04-08T15:02:26.716Z,12.57
2023-04-08T15:04:59.072Z,12.56
2023-04-08T15:07:32.277Z,12.55
2023-04-08T15:10:05.124Z,12.50
2023-04-08T15:12:37.415Z,12.41
2023-04-08T15:15:10.390Z,12.33
2023-04-08T15:17:43.140Z,12.37
2023-04-08T15:20:15.593Z,12.31
2023-04-08T15:22:48.373Z,12.44
2023-04-08T15:25:20.816Z,12.58
2023-04-08T15:27:52.704Z,12.62
2023-04-08T15:30:28.717Z,12.51
2023-04-08T15:33:05.658Z,12.73
2023-04-08T15:35:39.508Z,12.81
2023-04-08T15:41:05.411Z,12.63
2023-04-08T15:43:38.129Z,12.75
2023-04-08T15:49:03.604Z,12.84
2023-04-08T15:51:59.905Z,12.73
2023-04-08T15:54:34.073Z,12.69
2023-04-08T15:57:06.800Z,12.80
2023-04-08T15:59:38.658Z,12.94
2023-04-08T16:02:11.430Z,12.89
2023-04-08T16:04:44.204Z,12.78
2023-04-08T16:07:17.113Z,12.74
2023-04-08T16:09:48.954Z,12.50
2023-04-08T16:12:21.778Z,12.52
2023-04-08T16:14:53.883Z,12.43
2023-04-08T16:17:27.954Z,12.38
2023-04-08T16:20:00.390Z,12.44
2023-04-08T16:22:33.777Z,12.39
2023-04-08T16:25:06.452Z,12.44
2023-04-08T16:27:39.259Z,12.28
2023-04-08T16:30:11.898Z,12.18
2023-04-08T16:32:44.670Z,12.18
2023-04-08T16:35:17.752Z,12.08
2023-04-08T16:37:50.939Z,12.13
2023-04-08T16:40:24.271Z,12.22
2023-04-08T16:42:56.821Z,12.35
2023-04-08T16:45:30.310Z,12.37
2023-04-08T16:48:02.540Z,12.38
2023-04-08T16:50:35.227Z,12.34
2023-04-08T16:53:07.192Z,12.34
2023-04-08T16:55:40.174Z,12.25
2023-04-08T16:58:12.495Z,12.17
2023-04-08T17:00:45.190Z,12.13
2023-04-08T17:03:17.745Z,11.90
2023-04-08T17:05:51.255Z,11.86
2023-04-08T17:08:23.738Z,11.77
2023-04-08T17:11:13.092Z,11.73
2023-04-08T17:13:46.130Z,11.70
2023-04-08T17:16:24.036Z,11.70
2023-04-08T17:18:56.100Z,11.65
2023-04-08T17:21:50.464Z,11.71
2023-04-08T17:24:22.458Z,11.73
2023-04-08T17:26:57.188Z,11.83
2023-04-08T17:29:29.943Z,11.84
2023-04-08T17:32:01.877Z,11.70
2023-04-08T17:34:34.780Z,11.61
2023-04-08T17:37:07.671Z,11.57
2023-04-08T17:39:41.382Z,11.52
2023-04-08T17:42:14.588Z,11.50
2023-04-08T17:45:08.678Z,11.36
2023-04-08T17:50:36.665Z,11.38
2023-04-08T17:53:08.927Z,11.37
2023-04-08T17:55:41.432Z,11.35
2023-04-08T17:58:13.374Z,11.36
2023-04-08T18:00:47.653Z,11.34
2023-04-08T18:03:20.730Z,11.44
2023-04-08T18:05:55.138Z,11.46
2023-04-08T18:08:27.922Z,11.53
2023-04-08T18:10:59.822Z,11.45
2023-04-08T18:13:32.618Z,11.45
2023-04-08T18:16:15.653Z,11.36
2023-04-08T18:18:48.562Z,11.24
2023-04-08T18:21:22.004Z,11.18
2023-04-08T18:23:55.018Z,11.78
2023-04-08T18:26:28.845Z,12.79
2023-04-08T18:29:04.449Z,12.32
2023-04-08T18:31:36.725Z,11.82
2023-04-08T18:34:09.162Z,11.52
2023-04-08T18:36:41.107Z,11.50
2023-04-08T18:39:13.881Z,11.22
2023-04-08T18:41:45.813Z,11.20
2023-04-08T18:44:19.122Z,11.22
2023-04-08T18:46:51.711Z,11.14
2023-04-08T18:49:25.056Z,11.20
2023-04-08T18:52:02.435Z,11.22
2023-04-08T18:54:34.796Z,11.22
2023-04-08T18:57:07.517Z,11.13
2023-04-08T18:59:40.242Z,11.14
2023-04-08T19:02:12.604Z,11.01
2023-04-08T19:04:45.357Z,10.99
2023-04-08T19:07:17.786Z,10.83
2023-04-08T19:09:53.546Z,10.84
2023-04-08T19:12:26.576Z,10.81
2023-04-08T19:14:59.755Z,10.82
2023-04-08T19:17:31.778Z,10.81
2023-04-08T19:20:04.920Z,10.81
2023-04-08T19:22:37.580Z,10.72
2023-04-08T19:25:09.619Z,10.82
2023-04-08T19:27:42.373Z,10.84
2023-04-08T19:30:15.538Z,10.87
2023-04-08T19:32:49.035Z,10.74
2023-04-08T19:35:21.460Z,10.67
2023-04-08T19:37:54.140Z,10.59
2023-04-08T19:40:26.233Z,10.63
2023-04-08T19:42:59.684Z,10.53
2023-04-08T19:45:32.564Z,10.48
2023-04-08T19:48:05.830Z,10.45
2023-04-08T19:50:39.447Z,10.39
2023-04-08T19:53:11.414Z,10.35
2023-04-08T19:55:44.867Z,10.25
2023-04-08T19:58:16.788Z,10.16
2023-04-08T20:00:49.690Z,10.05
2023-04-08T20:03:22.339Z,9.99
2023-04-08T20:05:55.456Z,9.93
2023-04-08T20:08:28.494Z,9.91
2023-04-08T20:11:04.567Z,9.96
2023-04-08T20:13:37.218Z,9.86
2023-04-08T20:16:10.172Z,9.94
2023-04-08T20:18:42.061Z,9.84
2023-04-08T20:21:15.080Z,9.77
2023-04-08T20:23:47.269Z,9.73
2023-04-08T20:26:21.869Z,9.66
2023-04-08T20:28:56.254Z,9.56
2023-04-08T20:31:32.523Z,9.52
2023-04-08T20:34:04.767Z,9.49
2023-04-08T20:36:38.589Z,9.54
2023-04-08T20:39:11.412Z,9.50
2023-04-08T20:41:44.921Z,9.45
2023-04-08T20:44:17.554Z,9.41
2023-04-08T20:46:50.505Z,9.44
2023-04-08T20:49:23.394Z,9.35
2023-04-08T20:51:56.383Z,9.35
2023-04-08T20:54:31.235Z,9.42
2023-04-08T20:57:03.737Z,9.42
2023-04-08T20:59:39.172Z,9.38
2023-04-08T21:02:22.461Z,9.38
2023-04-08T21:04:58.465Z,9.40
2023-04-08T21:07:31.206Z,9.33
2023-04-08T21:10:07.522Z,9.29
2023-04-08T21:12:39.798Z,9.39
2023-04-08T21:15:12.725Z,9.32
2023-04-08T21:17:45.654Z,9.28
2023-04-08T21:20:17.992Z,9.27
2023-04-08T21:22:50.494Z,9.25
2023-04-08T21:25:24.800Z,9.22
2023-04-08T21:27:57.605Z,9.25
2023-04-08T21:30:48.330Z,9.27
2023-04-08T21:33:21.502Z,9.22
2023-04-08T21:35:53.513Z,9.11
2023-04-08T21:38:26.219Z,9.14
2023-04-08T21:40:58.932Z,9.00
2023-04-08T21:43:31.231Z,9.04
2023-04-08T21:46:04.233Z,8.98
2023-04-08T21:48:37.064Z,8.94
2023-04-08T21:51:08.932Z,8.98
2023-04-08T21:53:41.661Z,9.08
2023-04-08T21:56:13.970Z,8.95
2023-04-08T21:58:46.762Z,8.95
2023-04-08T22:01:19.099Z,8.91
2023-04-08T22:03:54.257Z,8.85
2023-04-08T22:06:32.265Z,8.74
2023-04-08T22:09:05.556Z,8.81
2023-04-08T22:11:39.584Z,8.69
2023-04-08T22:14:12.069Z,8.66
2023-04-08T22:17:04.072Z,8.58
2023-04-08T22:19:36.146Z,8.53
2023-04-08T22:22:08.833Z,8.49
2023-04-08T22:24:40.764Z,8.43
2023-04-08T22:27:13.982Z,8.50
2023-04-08T22:29:46.276Z,8.44
2023-04-08T22:32:40.991Z,8.40
2023-04-08T22:35:13.376Z,8.33
2023-04-08T22:37:46.309Z,8.30
2023-04-08T22:40:18.364Z,8.42
2023-04-08T22:42:51.252Z,8.60
2023-04-08T22:45:23.566Z,8.73
2023-04-08T22:47:55.580Z,8.68
2023-04-08T22:50:28.994Z,8.72
2023-04-08T22:53:00.886Z,8.71
2023-04-08T22:55:33.706Z,8.65
2023-04-08T22:58:05.959Z,8.75
2023-04-08T23:00:38.673Z,8.63
2023-04-08T23:03:10.582Z,8.56
2023-04-08T23:05:43.541Z,8.49
2023-04-08T23:08:16.461Z,8.44
2023-04-08T23:10:48.765Z,8.48
2023-04-08T23:13:21.101Z,8.45
2023-04-08T23:15:53.686Z,8.41
2023-04-08T23:18:26.555Z,8.36
2023-04-08T23:20:59.722Z,8.26
2023-04-08T23:23:31.893Z,8.18
2023-04-08T23:26:05.006Z,8.16
2023-04-08T23:28:37.277Z,8.08
2023-04-08T23:31:10.694Z,8.19
2023-04-08T23:33:42.598Z,8.16
2023-04-08T23:39:08.489Z,8.00
2023-04-08T23:41:41.286Z,8.00
2023-04-08T23:44:13.184Z,8.02
2023-04-08T23:46:46.007Z,7.90
2023-04-08T23:49:18.275Z,7.70
2023-04-08T23:51:50.698Z,7.54
2023-04-08T23:54:23.042Z,7.37
2023-04-08T23:56:55.324Z,7.34
2023-04-08T23:59:30.840Z,7.24
